Time;durP1;ratioP1;P1;durP2;ratioP2;P2;SDS_P1;SDS_P2;PMS_P1;PMS_P2;Temp;Humidity;BMP_temperature;BMP_pressure;BME280_temperature;BME280_humidity;BME280_pressure;Samples;Min_cycle;Max_cycle;Signal;HPM_P1;HPM_P2
2022/10/06 00:00:45;;;;;;;3.95;1.42;;;;;;;11.47;100.00;96667.56;5051791;28;24438;-70
2022/10/06 00:03:12;;;;;;;3.47;1.77;;;;;;;11.44;100.00;96667.72;5052456;28;24802;-70
2022/10/06 00:05:39;;;;;;;2.67;1.47;;;;;;;11.41;100.00;96665.28;5053005;28;24527;-70
2022/10/06 00:08:07;;;;;;;2.83;1.60;;;;;;;11.28;100.00;96657.31;5052461;28;24482;-70
2022/10/06 00:10:34;;;;;;;3.15;1.60;;;;;;;11.25;100.00;96671.25;5051813;28;24435;-70
2022/10/06 00:13:01;;;;;;;2.88;1.40;;;;;;;11.25;100.00;96671.25;5051965;28;24801;-70
2022/10/06 00:15:31;;;;;;;6.28;1.40;;;;;;;11.26;100.00;96672.91;5051975;28;24431;-70
2022/10/06 00:17:59;;;;;;;2.92;1.50;;;;;;;11.28;100.00;96672.84;5052257;28;24438;-70
2022/10/06 00:20:26;;;;;;;2.00;1.40;;;;;;;11.27;100.00;96678.94;5043436;28;24434;-69
2022/10/06 00:22:52;;;;;;;3.55;1.52;;;;;;;11.14;100.00;96674.38;5051889;28;24435;-69
2022/10/06 00:25:23;;;;;;;6.38;2.10;;;;;;;11.29;100.00;96677.13;5051385;28;24435;-70
2022/10/06 00:27:52;;;;;;;2.90;1.58;;;;;;;11.20;100.00;96675.84;5052002;28;24458;-70
2022/10/06 00:30:21;;;;;;;2.30;1.52;;;;;;;11.11;100.00;96676.28;5051249;28;24431;-69
2022/10/06 00:32:51;;;;;;;4.07;1.65;;;;;;;11.13;100.00;96685.69;5051749;28;24427;-70
2022/10/06 00:35:18;;;;;;;3.97;1.80;;;;;;;11.16;100.00;96676.91;5051319;28;24434;-70
2022/10/06 00:37:44;;;;;;;2.85;1.60;;;;;;;11.22;100.00;96686.97;5051722;28;24454;-70
2022/10/06 00:40:11;;;;;;;3.75;1.65;;;;;;;11.19;100.00;96688.88;5050745;28;24434;-70
2022/10/06 00:42:52;;;;;;;2.95;1.83;;;;;;;11.20;100.00;96691.41;5051408;28;24443;-69
2022/10/06 00:45:23;;;;;;;2.25;1.48;;;;;;;11.25;100.00;96696.34;5050449;28;25452;-70
2022/10/06 00:47:50;;;;;;;2.60;1.80;;;;;;;11.35;100.00;96700.16;5050783;28;24486;-69
2022/10/06 00:50:18;;;;;;;2.78;1.58;;;;;;;11.37;100.00;96700.91;5050921;28;24437;-70
2022/10/06 00:52:45;;;;;;;2.22;1.55;;;;;;;11.28;100.00;96701.38;5051168;28;24435;-69
2022/10/06 00:55:11;;;;;;;2.63;1.80;;;;;;;11.15;100.00;96701.16;5051009;28;24434;-70
2022/10/06 00:57:40;;;;;;;3.60;1.55;;;;;;;10.93;100.00;96706.56;5051038;28;25000;-70
2022/10/06 01:00:11;;;;;;;2.80;1.40;;;;;;;10.78;100.00;96713.31;5050548;28;24816;-69
2022/10/06 01:02:42;;;;;;;3.50;1.40;;;;;;;10.78;100.00;96709.91;5051133;28;24435;-69
2022/10/06 01:05:15;;;;;;;3.90;1.70;;;;;;;10.76;100.00;96706.56;5050633;28;24836;-69
2022/10/06 01:07:42;;;;;;;4.37;1.60;;;;;;;10.79;100.00;96704.66;5051205;28;24462;-70
2022/10/06 01:10:09;;;;;;;3.75;1.80;;;;;;;10.86;100.00;96705.19;5050504;28;24427;-69
2022/10/06 01:12:35;;;;;;;3.30;1.90;;;;;;;10.82;100.00;96708.84;5050840;28;24524;-70
2022/10/06 01:15:02;;;;;;;2.65;1.50;;;;;;;10.80;100.00;96715.88;5050534;28;24466;-69
2022/10/06 01:17:35;;;;;;;2.00;1.60;;;;;;;10.75;100.00;96716.06;5050827;28;24434;-70
2022/10/06 01:20:07;;;;;;;7.10;1.65;;;;;;;10.81;100.00;96717.53;5047302;28;24438;-69
2022/10/06 01:22:37;;;;;;;3.28;1.63;;;;;;;10.81;100.00;96720.97;5050988;28;24439;-69
2022/10/06 01:25:07;;;;;;;2.70;1.63;;;;;;;10.82;100.00;96717.44;5050393;28;24431;-70
2022/10/06 01:27:35;;;;;;;5.65;2.10;;;;;;;10.89;100.00;96716.22;5050467;28;24464;-69
2022/10/06 01:30:02;;;;;;;5.43;1.73;;;;;;;10.87;100.00;96715.50;5049706;28;25003;-70
2022/10/06 01:32:33;;;;;;;5.87;1.90;;;;;;;10.80;100.00;96723.63;5050591;28;24521;-70
2022/10/06 01:35:00;;;;;;;5.03;2.00;;;;;;;10.71;100.00;96721.47;5046956;28;24427;-70
2022/10/06 01:37:26;;;;;;;2.35;1.40;;;;;;;10.70;100.00;96724.97;5050570;28;24450;-70
2022/10/06 01:39:54;;;;;;;2.08;1.65;;;;;;;10.70;100.00;96727.56;5049709;28;24432;-70
2022/10/06 01:42:21;;;;;;;5.75;1.98;;;;;;;10.75;100.00;96733.38;5050179;28;24431;-70
2022/10/06 01:44:47;;;;;;;2.60;1.73;;;;;;;10.78;100.00;96734.06;5050138;28;24431;-70
2022/10/06 01:47:14;;;;;;;3.25;2.10;;;;;;;10.88;100.00;96735.28;5050075;28;24813;-70
2022/10/06 01:49:40;;;;;;;4.38;1.88;;;;;;;10.87;100.00;96728.44;5049942;28;24431;-70
2022/10/06 01:52:08;;;;;;;3.83;1.75;;;;;;;10.68;100.00;96729.38;5049960;28;24446;-70
2022/10/06 01:54:34;;;;;;;3.95;2.10;;;;;;;10.59;100.00;96725.50;5046106;28;24432;-70
2022/10/06 01:57:04;;;;;;;3.78;2.03;;;;;;;10.53;100.00;96730.94;5046759;28;24439;-69
2022/10/06 01:59:31;;;;;;;2.37;1.60;;;;;;;10.41;100.00;96740.16;5048607;28;24431;-70
2022/10/06 02:01:58;;;;;;;4.25;2.25;;;;;;;10.40;100.00;96734.13;5049996;28;24501;-70
2022/10/06 02:04:24;;;;;;;3.50;1.98;;;;;;;10.47;100.00;96744.22;5049498;28;24458;-70
2022/10/06 02:06:51;;;;;;;6.63;2.10;;;;;;;10.46;100.00;96747.72;5049763;28;24435;-70
2022/10/06 02:09:18;;;;;;;2.40;1.83;;;;;;;10.40;100.00;96749.66;5049367;28;24453;-70
2022/10/06 02:11:44;;;;;;;3.58;1.98;;;;;;;10.39;100.00;96755.75;5049126;28;24427;-70
2022/10/06 02:14:12;;;;;;;3.55;1.63;;;;;;;10.40;100.00;96760.03;5049473;28;24434;-70
2022/10/06 02:16:39;;;;;;;4.70;2.00;;;;;;;10.42;100.00;96759.97;5049697;28;24489;-70
2022/10/06 02:19:06;;;;;;;3.58;2.05;;;;;;;10.45;100.00;96764.16;5049452;28;24905;-69
2022/10/06 02:21:33;;;;;;;4.18;1.60;;;;;;;10.49;100.00;96763.94;5049295;28;24439;-70
2022/10/06 02:23:59;;;;;;;6.82;1.70;;;;;;;10.53;100.00;96757.72;5049040;28;24431;-70
2022/10/06 02:26:26;;;;;;;2.50;1.80;;;;;;;10.46;100.00;96768.44;5041502;28;24804;-70
2022/10/06 02:28:52;;;;;;;3.67;1.70;;;;;;;10.39;100.00;96766.13;5049274;28;24462;-70
2022/10/06 02:31:20;;;;;;;5.47;1.88;;;;;;;10.25;100.00;96772.81;5048757;28;24439;-70
2022/10/06 02:33:47;;;;;;;2.50;1.60;;;;;;;10.32;100.00;96767.31;5048946;28;24438;-69
2022/10/06 02:36:15;;;;;;;6.75;2.03;;;;;;;10.34;100.00;96770.66;5049358;28;24793;-70
2022/10/06 02:38:42;;;;;;;2.28;1.60;;;;;;;10.18;100.00;96774.84;5049291;28;24518;-70
2022/10/06 02:43:41;;;;;;;3.42;1.80;;;;;;;10.12;100.00;96777.69;5086414;28;24466;-71
2022/10/06 02:46:11;;;;;;;4.13;1.57;;;;;;;10.13;100.00;96776.81;5089462;28;24453;-71
2022/10/06 02:48:39;;;;;;;3.05;1.42;;;;;;;10.14;100.00;96784.47;5089749;28;24449;-71
2022/10/06 02:51:08;;;;;;;2.65;1.60;;;;;;;10.16;100.00;96781.84;5088536;28;24434;-71
2022/10/06 02:53:34;;;;;;;3.22;1.40;;;;;;;10.14;100.00;96773.28;5068799;28;24462;-71
2022/10/06 02:56:04;;;;;;;4.25;1.88;;;;;;;10.01;100.00;96787.69;5068722;28;24438;-71
2022/10/06 02:58:31;;;;;;;2.05;1.67;;;;;;;9.99;100.00;96800.69;5069282;28;24789;-71
2022/10/06 03:01:01;;;;;;;2.72;1.88;;;;;;;9.99;100.00;96810.22;5068581;28;24783;-71
2022/10/06 03:03:28;;;;;;;3.80;1.77;;;;;;;10.06;100.00;96811.63;5061118;28;24454;-71
2022/10/06 03:06:00;;;;;;;2.50;1.70;;;;;;;10.10;100.00;96814.00;5068785;28;24488;-71
2022/10/06 03:08:26;;;;;;;3.05;1.83;;;;;;;10.20;100.00;96811.84;5061303;28;24454;-71
2022/10/06 03:10:59;;;;;;;2.63;1.67;;;;;;;10.24;100.00;96820.31;5068040;28;24492;-71
2022/10/06 03:13:26;;;;;;;4.03;1.50;;;;;;;10.23;100.00;96818.63;5060623;28;24550;-71
2022/10/06 03:15:52;;;;;;;3.40;1.60;;;;;;;10.15;100.00;96818.97;5068857;28;24449;-73
2022/10/06 03:18:19;;;;;;;3.35;1.67;;;;;;;10.03;100.00;96832.47;5068729;28;24446;-71
2022/10/06 03:20:45;;;;;;;2.38;1.60;;;;;;;9.92;100.00;96832.94;5068080;28;24431;-71
2022/10/06 03:23:13;;;;;;;7.93;1.83;;;;;;;9.90;100.00;96834.72;5068899;28;24443;-71
2022/10/06 03:25:40;;;;;;;4.18;1.92;;;;;;;9.94;100.00;96837.13;5068800;28;24438;-70
2022/10/06 03:28:06;;;;;;;3.28;1.90;;;;;;;9.94;100.00;96841.47;5068772;28;24993;-71
2022/10/06 03:30:33;;;;;;;6.75;1.98;;;;;;;9.84;100.00;96847.94;5068101;28;24426;-71
2022/10/06 03:33:00;;;;;;;4.78;2.13;;;;;;;9.85;100.00;96845.28;5068439;28;25018;-71
2022/10/06 03:35:27;;;;;;;4.15;1.80;;;;;;;9.88;100.00;96847.75;5068740;28;24438;-73
2022/10/06 03:37:53;;;;;;;4.78;1.70;;;;;;;9.68;100.00;96860.69;5068672;28;24780;-73
2022/10/06 03:40:21;;;;;;;3.42;2.00;;;;;;;9.55;100.00;96865.50;5068001;28;24434;-73
2022/10/06 03:42:48;;;;;;;3.22;1.98;;;;;;;9.48;100.00;96860.66;5068570;28;24438;-73
2022/10/06 03:45:14;;;;;;;3.05;2.05;;;;;;;9.62;100.00;96861.78;5068176;28;24435;-73
2022/10/06 03:47:41;;;;;;;3.42;2.28;;;;;;;9.72;100.00;96871.75;5067931;28;24438;-71
2022/10/06 03:50:08;;;;;;;4.05;2.55;;;;;;;9.74;100.00;96886.28;5067977;28;24462;-71
2022/10/06 03:52:35;;;;;;;3.77;2.20;;;;;;;9.84;100.00;96877.25;5068293;28;20875;-71
2022/10/06 03:55:01;;;;;;;3.70;2.00;;;;;;;10.02;100.00;96888.56;5067932;28;24434;-71
2022/10/06 03:57:29;;;;;;;14.18;2.30;;;;;;;10.06;100.00;96887.53;5068595;28;24438;-71
2022/10/06 03:59:58;;;;;;;4.10;2.20;;;;;;;10.00;100.00;96885.19;5067841;28;24824;-71
2022/10/06 04:02:25;;;;;;;3.67;1.80;;;;;;;9.97;100.00;96877.53;5060255;28;24442;-71
2022/10/06 04:04:51;;;;;;;9.23;3.35;;;;;;;10.52;100.00;96877.75;5068214;28;24441;-72
2022/10/06 04:07:18;;;;;;;8.68;3.38;;;;;;;11.10;100.00;96880.28;5068591;28;24965;-72
2022/10/06 04:09:44;;;;;;;7.28;3.13;;;;;;;11.80;100.00;96870.00;5067795;28;24462;-72
2022/10/06 04:12:11;;;;;;;10.05;3.50;;;;;;;12.14;100.00;96876.09;5068484;28;24481;-72
2022/10/06 04:14:39;;;;;;;9.80;3.13;;;;;;;11.98;100.00;96873.44;5067788;28;24437;-72
2022/10/06 04:17:05;;;;;;;5.63;2.60;;;;;;;11.77;100.00;96883.94;5068504;28;24438;-72
2022/10/06 04:19:32;;;;;;;4.22;2.42;;;;;;;11.75;100.00;96893.56;5067789;28;24789;-72
2022/10/06 04:21:58;;;;;;;3.75;2.25;;;;;;;11.62;100.00;96902.88;5068306;28;24439;-72
2022/10/06 04:24:25;;;;;;;7.03;2.63;;;;;;;11.44;100.00;96907.19;5065513;28;24994;-71
2022/10/06 04:26:51;;;;;;;4.88;2.50;;;;;;;11.42;100.00;96892.59;5066036;28;24447;-71
2022/10/06 04:29:18;;;;;;;4.55;2.63;;;;;;;11.40;100.00;96910.84;5069759;28;24457;-71
2022/10/06 04:31:46;;;;;;;7.05;2.45;;;;;;;11.36;100.00;96907.56;5071539;28;24976;-72
2022/10/06 04:34:13;;;;;;;6.72;3.40;;;;;;;11.33;100.00;96912.88;5071307;28;24800;-72
2022/10/06 04:36:41;;;;;;;4.20;2.92;;;;;;;11.40;100.00;96910.84;5071647;28;24807;-72
2022/10/06 04:39:09;;;;;;;4.25;2.60;;;;;;;11.41;100.00;96915.13;5071092;28;24427;-72
2022/10/06 04:41:38;;;;;;;8.68;2.70;;;;;;;11.41;100.00;96919.47;5071313;28;24502;-72
2022/10/06 04:44:05;;;;;;;5.57;2.97;;;;;;;11.36;100.00;96917.94;5070690;28;24441;-72
2022/10/06 04:46:33;;;;;;;4.83;2.60;;;;;;;11.32;100.00;96920.75;5071523;28;24459;-72
2022/10/06 04:49:01;;;;;;;3.83;2.80;;;;;;;11.36;100.00;96928.31;5071709;28;24451;-72
2022/10/06 04:51:28;;;;;;;10.35;3.38;;;;;;;11.51;100.00;96920.72;5070804;28;25002;-72
2022/10/06 04:53:55;;;;;;;4.63;2.83;;;;;;;11.50;100.00;96916.44;5071038;28;24872;-72
2022/10/06 04:56:23;;;;;;;4.83;2.70;;;;;;;11.46;100.00;96928.72;5069516;28;25059;-72
2022/10/06 04:58:52;;;;;;;5.32;2.70;;;;;;;11.49;100.00;96925.97;5071289;28;24430;-72
2022/10/06 05:01:20;;;;;;;9.10;2.92;;;;;;;11.46;100.00;96933.03;5070670;28;24446;-72
2022/10/06 05:03:48;;;;;;;6.45;2.83;;;;;;;11.42;100.00;96936.69;5070888;28;24520;-72
2022/10/06 05:06:18;;;;;;;4.13;2.85;;;;;;;11.45;100.00;96947.78;5070993;28;24431;-72
2022/10/06 05:08:47;;;;;;;8.50;3.20;;;;;;;11.46;100.00;96940.81;5070902;28;24817;-72
2022/10/06 05:11:14;;;;;;;6.60;2.95;;;;;;;11.46;100.00;96946.00;5070342;28;24434;-72
2022/10/06 05:13:40;;;;;;;7.82;3.10;;;;;;;11.53;100.00;96952.59;5070830;28;24470;-72
2022/10/06 05:16:10;;;;;;;5.15;2.55;;;;;;;11.61;100.00;96953.94;5070666;28;24441;-72
2022/10/06 05:18:37;;;;;;;9.67;3.40;;;;;;;11.97;100.00;96947.03;5071139;28;24529;-72
2022/10/06 05:21:06;;;;;;;7.57;3.67;;;;;;;12.29;100.00;96950.63;5069922;28;24526;-72
2022/10/06 05:23:37;;;;;;;7.40;3.63;;;;;;;12.52;100.00;96954.63;5069956;28;24987;-72
2022/10/06 05:26:04;;;;;;;8.43;3.67;;;;;;;12.64;100.00;96955.75;5070701;28;24430;-72
2022/10/06 05:28:32;;;;;;;7.43;3.53;;;;;;;12.70;100.00;96963.25;5070597;28;24817;-73
2022/10/06 05:31:01;;;;;;;7.00;3.67;;;;;;;12.71;100.00;96963.16;5062408;28;24983;-72
2022/10/06 05:33:31;;;;;;;8.85;3.53;;;;;;;12.82;100.00;96973.84;5061524;28;24565;-72
2022/10/06 05:35:59;;;;;;;8.68;3.55;;;;;;;12.87;100.00;96972.75;5069910;28;25006;-71
2022/10/06 05:38:27;;;;;;;7.57;3.40;;;;;;;12.93;100.00;96977.63;5061874;28;24784;-71
2022/10/06 05:41:02;;;;;;;7.20;3.28;;;;;;;12.93;100.00;96981.06;5069505;28;24427;-72
2022/10/06 05:43:29;;;;;;;9.77;3.25;;;;;;;12.92;100.00;96986.38;5062127;28;24431;-71
2022/10/06 05:45:57;;;;;;;9.95;3.25;;;;;;;12.87;100.00;96993.53;5070120;28;24788;-72
2022/10/06 05:48:24;;;;;;;4.07;2.72;;;;;;;12.83;100.00;96985.94;5069855;28;24787;-72
2022/10/06 05:50:58;;;;;;;6.13;2.60;;;;;;;12.77;100.00;96993.19;5069539;28;24438;-69
2022/10/06 05:53:24;;;;;;;5.20;2.58;;;;;;;12.72;100.00;96996.06;5061276;28;24503;-73
2022/10/06 05:55:51;;;;;;;4.15;2.47;;;;;;;12.72;100.00;96998.66;5069896;28;24823;-72
2022/10/06 05:58:19;;;;;;;4.57;2.40;;;;;;;12.72;100.00;97003.84;5069997;28;24437;-73
2022/10/06 06:00:45;;;;;;;9.98;2.88;;;;;;;12.71;100.00;97006.50;5068725;28;24796;-72
2022/10/06 06:03:12;;;;;;;7.50;3.00;;;;;;;12.64;100.00;97008.56;5069576;28;24471;-73
2022/10/06 06:05:41;;;;;;;3.97;2.72;;;;;;;12.59;100.00;97008.81;5069484;28;24454;-73
2022/10/06 06:08:09;;;;;;;5.07;2.77;;;;;;;12.63;100.00;97016.47;5069733;28;25050;-73
2022/10/06 06:10:36;;;;;;;3.97;2.67;;;;;;;12.58;100.00;97020.16;5068940;28;24458;-75
2022/10/06 06:13:02;;;;;;;5.53;2.75;;;;;;;12.58;100.00;97027.09;5068992;28;24817;-73
2022/10/06 06:18:14;;;;;;;6.50;3.28;;;;;;;12.53;100.00;97027.34;5068300;28;24500;-73
2022/10/06 06:20:41;;;;;;;6.47;3.40;;;;;;;12.52;100.00;97030.00;5068889;28;24438;-74
2022/10/06 06:23:08;;;;;;;5.35;3.47;;;;;;;12.54;100.00;97033.38;5068933;28;25014;-73
2022/10/06 06:25:34;;;;;;;6.45;3.53;;;;;;;12.55;100.00;97032.44;5069173;28;24439;-73
2022/10/06 06:28:01;;;;;;;8.60;3.05;;;;;;;12.53;100.00;97036.88;5070153;28;25054;-73
2022/10/06 06:30:27;;;;;;;8.98;3.20;;;;;;;12.58;100.00;97046.13;5068618;28;24465;-72
2022/10/06 06:32:58;;;;;;;7.03;3.22;;;;;;;12.56;100.00;97058.34;5069196;28;24548;-71
2022/10/06 06:35:25;;;;;;;5.45;3.17;;;;;;;12.59;100.00;97055.59;5062087;28;24430;-72
2022/10/06 06:37:51;;;;;;;6.35;2.20;;;;;;;12.61;100.00;97052.94;5068559;28;24453;-72
2022/10/06 06:40:18;;;;;;;6.18;2.58;;;;;;;12.72;100.00;97057.56;5068170;28;24427;-73
2022/10/06 06:42:44;;;;;;;7.57;2.67;;;;;;;12.74;100.00;97061.78;5068358;28;24983;-73
2022/10/06 06:45:11;;;;;;;3.63;1.58;;;;;;;12.79;100.00;97065.00;5068312;28;24441;-73
2022/10/06 06:47:37;;;;;;;5.07;1.75;;;;;;;12.88;100.00;97062.84;5069084;28;25014;-73
2022/10/06 06:50:09;;;;;;;6.28;1.50;;;;;;;12.85;100.00;97071.63;5068322;28;25080;-72
2022/10/06 06:52:35;;;;;;;4.07;1.48;;;;;;;12.87;100.00;97075.00;5069000;28;24854;-72
2022/10/06 06:55:02;;;;;;;2.53;1.10;;;;;;;12.87;100.00;97082.81;5068297;28;24975;-72
2022/10/06 06:57:28;;;;;;;6.88;1.40;;;;;;;12.93;100.00;97086.84;5069316;28;24442;-72
2022/10/06 06:59:55;;;;;;;4.93;1.15;;;;;;;13.11;100.00;97093.69;5068644;28;24429;-72
2022/10/06 07:02:25;;;;;;;1.95;1.23;;;;;;;13.17;100.00;97093.41;5069100;28;24460;-73
2022/10/06 07:04:51;;;;;;;2.80;1.30;;;;;;;13.25;100.00;97103.44;5064051;28;24534;-72
2022/10/06 07:07:19;;;;;;;3.17;1.10;;;;;;;13.32;100.00;97107.41;5069097;28;24438;-72
2022/10/06 07:09:46;;;;;;;4.25;2.03;;;;;;;13.48;100.00;97113.47;5068214;28;24453;-73
2022/10/06 07:12:12;;;;;;;5.13;2.57;;;;;;;13.56;100.00;97119.09;5069282;28;24442;-72
2022/10/06 07:25:05;;;;;;;6.00;2.40;;;;;;;13.52;100.00;97129.75;5068548;28;24434;-72
2022/10/06 07:25:39;;;;;;;3.72;1.40;;;;;;;13.99;100.00;97126.38;5062762;28;24426;-73
2022/10/06 07:28:07;;;;;;;7.05;1.70;;;;;;;14.09;100.00;97131.91;5069241;28;24437;-71
2022/10/06 07:30:33;;;;;;;3.47;1.52;;;;;;;13.91;100.00;97142.41;5067661;28;24477;-72
2022/10/06 07:33:00;;;;;;;3.30;1.38;;;;;;;13.76;100.00;97138.88;5068684;28;24522;-71
2022/10/06 07:35:27;;;;;;;3.88;1.45;;;;;;;13.71;100.00;97140.03;5068422;28;24465;-72
2022/10/06 07:37:56;;;;;;;2.72;1.50;;;;;;;13.73;100.00;97133.00;5068736;28;24434;-72
2022/10/06 07:40:23;;;;;;;2.75;1.58;;;;;;;13.79;100.00;97130.03;5068292;28;25003;-72
2022/10/06 07:42:51;;;;;;;3.30;1.40;;;;;;;13.76;100.00;97144.09;5068300;28;24489;-72
2022/10/06 07:45:38;;;;;;;4.78;1.65;;;;;;;13.75;100.00;97133.72;5068191;28;24507;-72
2022/10/06 07:48:06;;;;;;;3.92;1.90;;;;;;;13.84;100.00;97138.47;5066291;28;24431;-71
2022/10/06 07:50:33;;;;;;;3.28;1.60;;;;;;;13.78;100.00;97139.63;5068005;28;25208;-72
2022/10/06 07:53:03;;;;;;;6.60;1.73;;;;;;;13.79;100.00;97143.94;5068641;28;24815;-72
2022/10/06 07:55:31;;;;;;;6.93;1.60;;;;;;;13.83;100.00;97146.34;5065468;28;24968;-71
2022/10/06 07:57:57;;;;;;;3.67;1.20;;;;;;;13.78;100.00;97147.44;5070049;28;24797;-72
2022/10/06 08:00:25;;;;;;;3.92;1.40;;;;;;;13.72;100.00;97152.13;5066879;28;24964;-72
2022/10/06 08:02:53;;;;;;;3.00;1.30;;;;;;;13.72;100.00;97157.31;5072533;28;24435;-72
2022/10/06 08:05:20;;;;;;;4.75;1.45;;;;;;;13.74;100.00;97158.09;5072030;28;24455;-71
2022/10/06 08:07:47;;;;;;;3.08;1.10;;;;;;;13.82;100.00;97158.53;5072495;28;24438;-71
2022/10/06 08:10:17;;;;;;;3.63;1.40;;;;;;;13.87;100.00;97163.47;5071462;28;24454;-70
2022/10/06 08:12:43;;;;;;;2.97;1.35;;;;;;;13.92;100.00;97161.47;5066935;28;24446;-72
2022/10/06 08:15:12;;;;;;;8.10;1.60;;;;;;;14.02;100.00;97166.13;5071984;28;24438;-72
2022/10/06 08:17:38;;;;;;;3.38;1.30;;;;;;;13.94;100.00;97177.84;5066027;28;24431;-72
2022/10/06 08:20:07;;;;;;;4.63;1.40;;;;;;;13.93;100.00;97177.00;5071505;28;24434;-71
2022/10/06 08:22:35;;;;;;;5.15;1.42;;;;;;;13.95;100.00;97174.34;5071828;28;24979;-72
2022/10/06 08:25:02;;;;;;;4.25;1.55;;;;;;;13.97;100.00;97177.69;5071436;28;24499;-71
2022/10/06 08:27:30;;;;;;;4.75;1.10;;;;;;;13.98;100.00;97177.63;5072063;28;24518;-71
2022/10/06 08:29:57;;;;;;;4.45;1.75;;;;;;;13.99;100.00;97189.72;5071467;28;24454;-72
2022/10/06 08:32:24;;;;;;;5.53;1.60;;;;;;;14.01;100.00;97179.19;5071747;28;24808;-71
2022/10/06 08:34:50;;;;;;;6.78;1.60;;;;;;;14.07;100.00;97185.88;5071364;28;24427;-71
2022/10/06 08:37:22;;;;;;;4.53;1.20;;;;;;;14.08;100.00;97182.31;5071781;28;24438;-72
2022/10/06 08:39:49;;;;;;;4.80;1.50;;;;;;;14.07;100.00;97181.50;5071532;28;24429;-71
2022/10/06 08:42:20;;;;;;;4.68;1.40;;;;;;;14.14;100.00;97192.44;5072102;28;24446;-70
2022/10/06 08:44:55;;;;;;;4.65;1.23;;;;;;;14.09;100.00;97192.69;5071425;28;24441;-71
2022/10/06 08:47:26;;;;;;;4.20;1.30;;;;;;;14.08;100.00;97193.59;5071584;28;24437;-70
2022/10/06 08:49:53;;;;;;;3.45;1.30;;;;;;;14.06;100.00;97194.63;5070862;28;24449;-70
2022/10/06 08:52:41;;;;;;;3.75;1.40;;;;;;;14.12;100.00;97189.88;5071250;28;24461;-71
2022/10/06 08:55:23;;;;;;;7.97;1.63;;;;;;;14.11;100.00;97198.63;5067267;28;24434;-70
2022/10/06 08:58:01;;;;;;;4.25;1.33;;;;;;;14.27;100.00;97196.88;5066738;28;24438;-70
2022/10/06 09:00:31;;;;;;;6.35;1.88;;;;;;;14.33;100.00;97200.91;5067160;28;24423;-71
2022/10/06 09:02:59;;;;;;;4.88;1.10;;;;;;;14.25;100.00;97200.50;5071142;28;24901;-71
2022/10/06 09:05:28;;;;;;;6.18;1.50;;;;;;;14.28;100.00;97206.38;5067165;28;24804;-71
2022/10/06 09:08:15;;;;;;;5.30;1.58;;;;;;;14.07;100.00;97209.31;5071391;28;24488;-71
2022/10/06 09:10:48;;;;;;;2.95;1.40;;;;;;;14.02;100.00;97214.78;5068939;28;24457;-71
2022/10/06 09:13:20;;;;;;;3.55;1.30;;;;;;;14.10;100.00;97220.41;5071349;28;24438;-74
2022/10/06 09:15:53;;;;;;;5.75;1.40;;;;;;;14.12;100.00;97220.31;5071426;28;24445;-70
2022/10/06 09:18:26;;;;;;;3.72;1.35;;;;;;;14.11;100.00;97214.25;5071336;28;24438;-71
2022/10/06 09:20:57;;;;;;;3.60;1.10;;;;;;;14.11;100.00;97223.84;5066112;28;24441;-72
2022/10/06 09:26:14;;;;;;;5.43;1.45;;;;;;;14.16;100.00;97217.44;5070977;28;24429;-72
2022/10/06 09:28:44;;;;;;;4.95;1.38;;;;;;;14.32;100.00;97214.03;5070545;28;24445;-72
2022/10/06 09:31:21;;;;;;;5.72;1.55;;;;;;;14.43;100.00;97217.72;5070315;28;24473;-72
2022/10/06 09:33:50;;;;;;;3.90;1.60;;;;;;;14.61;100.00;97220.25;5070585;28;24435;-72
2022/10/06 09:36:16;;;;;;;6.68;1.80;;;;;;;15.32;100.00;97224.91;5070785;28;24431;-72
2022/10/06 09:38:52;;;;;;;8.65;1.38;;;;;;;15.54;100.00;97222.72;5070317;28;24443;-72
2022/10/06 09:41:22;;;;;;;3.88;1.20;;;;;;;15.33;100.00;97230.03;5068401;28;24423;-72
2022/10/06 09:43:54;;;;;;;6.93;1.40;;;;;;;15.10;100.00;97240.97;5069982;28;24427;-72
2022/10/06 09:46:29;;;;;;;6.20;1.20;;;;;;;15.03;100.00;97235.25;5070328;28;24492;-72
2022/10/06 09:49:16;;;;;;;4.50;1.30;;;;;;;14.93;100.00;97239.31;5070048;28;25081;-72
2022/10/06 09:51:59;;;;;;;5.88;1.20;;;;;;;14.74;100.00;97245.56;5065121;28;24460;-73
2022/10/06 09:54:27;;;;;;;4.05;1.30;;;;;;;14.66;100.00;97241.72;5061564;28;24441;-72
2022/10/06 09:56:55;;;;;;;4.93;1.47;;;;;;;14.69;100.00;97250.22;5070373;28;24463;-71
2022/10/06 09:59:28;;;;;;;4.35;1.25;;;;;;;14.61;100.00;97247.19;5069780;28;24439;-71
2022/10/06 10:01:58;;;;;;;4.45;1.45;;;;;;;14.65;100.00;97245.25;5070025;28;24979;-72
2022/10/06 10:04:29;;;;;;;3.67;1.17;;;;;;;14.82;100.00;97247.75;5069692;28;24434;-72
2022/10/06 10:07:13;;;;;;;3.80;1.38;;;;;;;14.84;100.00;97245.06;5069964;28;24784;-73
2022/10/06 10:09:41;;;;;;;8.10;1.52;;;;;;;15.00;100.00;97245.88;5063601;28;24492;-72
2022/10/06 10:12:29;;;;;;;4.97;1.60;;;;;;;14.97;100.00;97241.66;5070830;28;24430;-72
2022/10/06 10:14:58;;;;;;;5.05;1.35;;;;;;;14.81;100.00;97243.47;5069928;28;24466;-72
2022/10/06 10:17:40;;;;;;;4.88;1.27;;;;;;;14.78;100.00;97251.47;5061542;28;24430;-72
2022/10/06 10:20:23;;;;;;;4.63;1.40;;;;;;;14.88;100.00;97247.41;5068689;28;24433;-73
2022/10/06 10:22:50;;;;;;;4.10;1.55;;;;;;;14.70;100.00;97244.06;5069901;28;24488;-72
2022/10/06 10:25:32;;;;;;;5.63;1.75;;;;;;;14.74;100.00;97244.72;5069363;28;24431;-71
2022/10/06 10:28:08;;;;;;;7.82;1.90;;;;;;;14.80;100.00;97244.41;5070031;28;24446;-71
2022/10/06 10:30:44;;;;;;;6.55;1.50;;;;;;;14.91;100.00;97241.19;5068998;28;24458;-72
2022/10/06 10:33:17;;;;;;;5.47;1.40;;;;;;;14.94;100.00;97238.38;5069583;28;25006;-72
2022/10/06 10:35:47;;;;;;;6.60;1.90;;;;;;;15.01;100.00;97234.50;5069791;28;24431;-72
2022/10/06 10:38:18;;;;;;;6.03;1.85;;;;;;;15.18;100.00;97238.75;5069369;28;24435;-72
2022/10/06 10:40:49;;;;;;;5.38;1.40;;;;;;;15.58;99.90;97237.28;5068991;28;24868;-71
2022/10/06 10:43:28;;;;;;;5.57;1.60;;;;;;;15.46;98.87;97238.84;5068475;28;24442;-73
2022/10/06 10:45:59;;;;;;;6.90;1.60;;;;;;;15.75;93.83;97233.66;5063346;28;25017;-71
2022/10/06 10:48:32;;;;;;;5.55;1.50;;;;;;;16.23;96.63;97238.59;5061022;28;24456;-70
2022/10/06 10:51:05;;;;;;;5.18;1.48;;;;;;;15.74;93.75;97242.44;5063640;28;24816;-71
2022/10/06 10:53:40;;;;;;;3.58;1.17;;;;;;;15.71;98.75;97242.63;5060943;28;24473;-72
2022/10/06 10:56:10;;;;;;;7.43;1.80;;;;;;;15.48;95.44;97236.13;5065704;28;24435;-70
2022/10/06 10:58:40;;;;;;;5.55;1.75;;;;;;;15.39;97.24;97228.84;5067721;28;24536;-70
2022/10/06 11:01:17;;;;;;;7.53;1.63;;;;;;;15.34;99.45;97234.31;5068658;28;24430;-70
2022/10/06 11:03:55;;;;;;;4.78;1.38;;;;;;;15.59;100.00;97227.66;5069362;28;24449;-71
2022/10/06 11:06:42;;;;;;;4.43;1.65;;;;;;;15.47;97.14;97226.63;5069394;28;24429;-71
2022/10/06 11:09:15;;;;;;;5.63;1.57;;;;;;;15.44;97.73;97225.03;5066818;28;24430;-71
2022/10/06 11:12:04;;;;;;;5.22;1.58;;;;;;;15.96;100.00;97227.16;5069516;28;25078;-71
2022/10/06 11:14:48;;;;;;;7.18;1.58;;;;;;;15.77;98.01;97223.13;5061578;28;24435;-71
2022/10/06 11:17:25;;;;;;;6.97;1.60;;;;;;;16.01;100.00;97221.63;5069341;28;24431;-71
2022/10/06 11:20:03;;;;;;;9.05;1.95;;;;;;;16.48;99.66;97233.53;5068757;28;24443;-71
2022/10/06 11:22:40;;;;;;;6.45;1.70;;;;;;;16.48;94.19;97228.28;5062305;28;24492;-71
2022/10/06 11:25:18;;;;;;;3.63;1.45;;;;;;;16.36;94.25;97223.84;5068883;28;24914;-72
2022/10/06 11:27:56;;;;;;;7.82;1.80;;;;;;;16.20;97.63;97222.19;5069286;28;24792;-71
2022/10/06 11:30:25;;;;;;;6.00;1.60;;;;;;;15.89;97.01;97219.78;5068518;28;24558;-71
2022/10/06 11:33:08;;;;;;;6.43;1.58;;;;;;;15.79;99.37;97213.41;5071903;28;25131;-71
2022/10/06 11:35:38;;;;;;;6.22;1.63;;;;;;;15.60;100.00;97218.88;5071624;28;24437;-72
2022/10/06 11:38:15;;;;;;;5.53;1.58;;;;;;;15.56;100.00;97214.78;5073243;28;24532;-71
2022/10/06 11:40:52;;;;;;;8.90;1.67;;;;;;;15.47;100.00;97208.34;5072406;28;25070;-71
2022/10/06 11:43:32;;;;;;;7.45;2.17;;;;;;;15.54;100.00;97209.66;5072492;28;24437;-70
2022/10/06 11:46:07;;;;;;;5.30;1.60;;;;;;;15.35;100.00;97212.53;5073057;28;25060;-71
2022/10/06 11:48:33;;;;;;;5.38;1.58;;;;;;;15.39;100.00;97214.03;5065906;28;25003;-72
2022/10/06 11:51:29;;;;;;;6.60;1.90;;;;;;;15.41;100.00;97212.16;5072463;28;24458;-72
2022/10/06 11:53:56;;;;;;;7.10;1.85;;;;;;;15.59;100.00;97209.38;5067268;28;24431;-73